Decoded Metar for LEDA (LLEIDA in SPAIN) (IATA:ILD) | Meteo·Mobile Aviation Weather
aviador You're here:

LEDA Decoded Metar

LLEIDA in SPAIN
Report Time2020-02-25 21:30:00
UTC Time2020-02-25 21:42:55
Flight Rules vfr VFR
Wind250° at 17 kt
W.Decomp.*RWY 31: 8.5 kt HW 14.7 kt LCW
Visibility9999 m
Phenomena:N/A
Clouds:N/A
Expected CloudBase > 1,200 ft AGL from Temp-Dew spread
CeilingNone
Temp10°C (ISA -3)
Dew Point07°C (82% RH)
AAT3.2°C
QNH1015 hPa
Density Alt902 ft
Elevation1,152 ft
Report Wrong Elevation
Raw Report
LEDA 252130Z AUTO 25017KT CAVOK 10/07 Q1015=

Extra information for LEDA:More info

Metar Taf Metar & Taf Last 4 Metars F.Rules Stats Wind Profile Meteogram Temp Stats Airport Information Weather charts Add Link Nearby VenuesMetar ALERT Operation Metar Decoded Social comments